KIEN Airport (Pine Ridge) Information

FAA: IEN - ICAO: KIEN

KIEN Airport Location

State South Dakota
County Shannon
City Pine Ridge
KIEN Airport is 2 miles east of Pine Ridge, SD.
Latitude 43-01-16.5854N
Longitude 102-30-23.7831W
Elevation 3,332ft

KIEN Airport METARs

METAR KIEN 272352Z AUTO 35008KT 10SM BKN100 BKN110 11/M02 A2987 RMK AO2 SLP116 T01111017 10161 20111 53017 $
Altimeter 29.87"
Temperature 11.1°C (52.0°F)
Wind 350° at 8KT
Clouds broken at 10,000ft broken at 11,000ft
Visibility 10.0mi
Time observed: 2021-10-27T23:52:00Z

KIEN Airport Details

Status Operational
Activation May 1961
Ownership Public
Usage Public
Chart CHEYENNE
ATC on-site No
Beacon schedule N/A
Beacon color clear green

KIEN Airport Contacts

Owner OGLALA SIOUX TRIBE
Owner address PO BOX H, PINE RIDGE, SD 57770
Owner phone 605-867-5821
Manager TAMMY MILLER
Manager address 917 N WASHINGTON AVENUE, MADISON, SD 57042
Manager phone 605-256-6551

KIEN Airport (Pine Ridge) Radio Frequencies

KIEN (Airport) Radio Frequencies

UNICOM N/A
Common traffic advisory frequency (CTAF) 122.9